Time;durP1;ratioP1;P1;durP2;ratioP2;P2;SDS_P1;SDS_P2;PMS_P1;PMS_P2;Temp;Humidity;BMP_temperature;BMP_pressure;BME280_temperature;BME280_humidity;BME280_pressure;Samples;Min_cycle;Max_cycle;Signal;HPM_P1;HPM_P2
2021/12/26 00:02:31;;;;;;;2.92;2.25;;;19.90;44.70;;;;;;6219407;28;20034;-74
2021/12/26 00:05:32;;;;;;;3.65;2.30;;;19.90;44.60;;;;;;6219387;28;20389;-74
2021/12/26 00:08:36;;;;;;;3.30;2.28;;;19.90;44.60;;;;;;6218506;28;20034;-74
2021/12/26 00:11:37;;;;;;;2.25;1.60;;;19.90;44.70;;;;;;6216642;28;20033;-74
2021/12/26 00:14:37;;;;;;;3.63;2.38;;;19.90;44.60;;;;;;6201172;28;20029;-74
2021/12/26 00:17:38;;;;;;;2.72;2.10;;;19.90;44.60;;;;;;6219092;28;20105;-74
2021/12/26 00:20:39;;;;;;;3.35;2.33;;;19.90;44.60;;;;;;6218604;28;20065;-74
2021/12/26 00:23:40;;;;;;;3.10;2.10;;;19.90;44.60;;;;;;6218763;28;20366;-74
2021/12/26 00:26:41;;;;;;;3.95;2.00;;;19.90;44.60;;;;;;6218911;28;20030;-74
2021/12/26 00:29:41;;;;;;;2.97;2.20;;;19.90;44.60;;;;;;6223553;28;20041;-74
2021/12/26 00:32:42;;;;;;;4.13;2.67;;;19.90;44.60;;;;;;6202279;28;20034;-74
2021/12/26 00:35:43;;;;;;;3.60;2.20;;;19.90;44.70;;;;;;6214792;28;20022;-74
2021/12/26 00:38:44;;;;;;;3.35;2.33;;;19.90;44.70;;;;;;6220532;28;20512;-74
2021/12/26 00:41:44;;;;;;;3.63;2.35;;;19.90;44.70;;;;;;6222952;28;20058;-74
2021/12/26 00:44:45;;;;;;;2.65;1.73;;;19.90;44.60;;;;;;6193323;28;20073;-74
2021/12/26 00:47:46;;;;;;;3.10;2.45;;;19.90;44.70;;;;;;6223548;28;20149;-72
2021/12/26 00:50:48;;;;;;;3.65;2.45;;;19.90;44.60;;;;;;6211050;28;20054;-73
2021/12/26 00:53:49;;;;;;;3.85;2.33;;;19.90;44.70;;;;;;6220366;28;20109;-73
2021/12/26 00:56:49;;;;;;;3.10;2.47;;;19.90;44.60;;;;;;6223232;28;20029;-72
2021/12/26 00:59:50;;;;;;;3.40;2.03;;;19.90;44.60;;;;;;6223019;28;20053;-74
2021/12/26 01:02:52;;;;;;;3.15;2.20;;;19.90;44.60;;;;;;6219678;28;20030;-74
2021/12/26 01:05:55;;;;;;;3.97;2.35;;;19.90;44.60;;;;;;6222956;28;20032;-72
2021/12/26 01:08:56;;;;;;;3.70;2.40;;;19.90;44.60;;;;;;6223048;28;20037;-72
2021/12/26 01:12:00;;;;;;;4.55;2.70;;;19.80;44.60;;;;;;6223244;28;20068;-72
2021/12/26 01:15:05;;;;;;;3.70;2.27;;;19.80;44.50;;;;;;6208440;28;20030;-73
2021/12/26 01:18:06;;;;;;;3.53;2.25;;;19.80;44.50;;;;;;6198741;28;20098;-72
2021/12/26 01:21:19;;;;;;;3.45;2.40;;;19.90;44.60;;;;;;6222767;28;20026;-73
2021/12/26 01:24:20;;;;;;;3.13;2.00;;;19.80;44.60;;;;;;6222637;28;20037;-73
2021/12/26 01:27:20;;;;;;;3.42;2.42;;;19.90;44.60;;;;;;6222992;28;20030;-73
2021/12/26 01:30:21;;;;;;;3.00;2.13;;;19.90;44.60;;;;;;6220290;28;20037;-73
2021/12/26 01:33:22;;;;;;;3.45;2.38;;;19.80;44.50;;;;;;6198215;28;20113;-72
2021/12/26 01:36:23;;;;;;;3.00;2.40;;;19.80;44.60;;;;;;6222206;28;20037;-73
2021/12/26 01:39:25;;;;;;;4.32;2.78;;;19.80;44.60;;;;;;6221754;28;20084;-73
2021/12/26 01:42:27;;;;;;;3.97;2.50;;;19.80;44.50;;;;;;6216773;28;20022;-73
2021/12/26 01:45:27;;;;;;;4.20;2.55;;;19.80;44.60;;;;;;6214165;28;20029;-73
2021/12/26 01:48:28;;;;;;;3.78;2.45;;;19.80;44.50;;;;;;6222507;28;20080;-72
2021/12/26 01:51:29;;;;;;;3.72;2.50;;;19.80;44.60;;;;;;6218654;28;20025;-73
2021/12/26 01:54:45;;;;;;;3.55;2.63;;;19.80;44.60;;;;;;6221830;28;20053;-73
2021/12/26 01:57:47;;;;;;;4.38;2.72;;;19.80;44.60;;;;;;6220883;28;20029;-73
2021/12/26 02:00:53;;;;;;;4.38;2.85;;;19.80;44.50;;;;;;6222185;28;20520;-72
2021/12/26 02:03:54;;;;;;;4.40;3.13;;;19.80;44.60;;;;;;6203876;28;20500;-71
2021/12/26 02:07:00;;;;;;;4.00;2.75;;;19.80;44.60;;;;;;6222118;28;20018;-73
2021/12/26 02:10:01;;;;;;;5.28;2.60;;;19.80;44.60;;;;;;6224397;28;20073;-72
2021/12/26 02:13:02;;;;;;;4.03;2.83;;;19.80;44.60;;;;;;6235051;28;20477;-72
2021/12/26 02:16:02;;;;;;;3.78;2.35;;;19.80;44.60;;;;;;6237442;28;20025;-72
2021/12/26 02:19:03;;;;;;;3.85;2.42;;;19.80;44.50;;;;;;6239439;28;20029;-72
2021/12/26 02:22:10;;;;;;;4.07;2.63;;;19.80;44.60;;;;;;6235768;28;20058;-72
2021/12/26 02:25:26;;;;;;;4.10;2.88;;;19.80;44.60;;;;;;6214189;28;20093;-72
2021/12/26 02:28:28;;;;;;;4.25;2.55;;;19.80;44.60;;;;;;6237993;28;20109;-72
2021/12/26 02:31:29;;;;;;;4.60;2.95;;;19.80;44.50;;;;;;6221584;28;20518;-72
2021/12/26 02:34:29;;;;;;;4.05;2.75;;;19.80;44.50;;;;;;6202109;28;20030;-73
2021/12/26 02:37:30;;;;;;;4.55;2.78;;;19.80;44.50;;;;;;6226727;28;20372;-72
2021/12/26 02:40:31;;;;;;;3.70;2.90;;;19.80;44.50;;;;;;6230550;28;20169;-72
2021/12/26 02:43:33;;;;;;;4.22;3.15;;;19.80;44.50;;;;;;6214273;28;20037;-72
2021/12/26 02:46:33;;;;;;;5.57;3.20;;;19.80;44.60;;;;;;6224978;28;20121;-72
2021/12/26 02:49:34;;;;;;;4.78;3.10;;;19.80;44.60;;;;;;6228867;28;20287;-73
2021/12/26 02:52:34;;;;;;;3.83;3.03;;;19.80;44.60;;;;;;6228101;28;20029;-73
2021/12/26 02:55:35;;;;;;;5.75;3.28;;;19.80;44.60;;;;;;6178991;28;20496;-72
2021/12/26 02:58:36;;;;;;;5.03;3.70;;;19.80;44.50;;;;;;6187558;28;20026;-72
2021/12/26 03:01:36;;;;;;;4.50;3.13;;;19.80;44.50;;;;;;6217527;28;20137;-72
2021/12/26 03:04:37;;;;;;;4.20;3.17;;;19.80;44.60;;;;;;6220598;28;20104;-72
2021/12/26 03:07:38;;;;;;;4.88;3.25;;;19.80;44.50;;;;;;6220529;28;20034;-72
2021/12/26 03:10:39;;;;;;;5.13;3.35;;;19.80;44.60;;;;;;6220407;28;20049;-71
2021/12/26 03:13:40;;;;;;;5.20;3.53;;;19.80;44.50;;;;;;6220153;28;20160;-72
2021/12/26 03:16:49;;;;;;;5.10;3.63;;;19.80;44.60;;;;;;6220293;28;20025;-72
2021/12/26 03:19:49;;;;;;;4.88;3.63;;;19.80;45.20;;;;;;6220051;28;20034;-72
2021/12/26 03:22:50;;;;;;;5.40;3.40;;;19.80;44.40;;;;;;6220448;28;20125;-73
2021/12/26 03:25:55;;;;;;;4.50;3.15;;;19.70;44.50;;;;;;6219973;28;20546;-72
2021/12/26 03:28:56;;;;;;;4.95;3.47;;;19.70;44.50;;;;;;6219604;28;20097;-72
2021/12/26 03:31:56;;;;;;;5.70;4.00;;;19.70;44.40;;;;;;6204938;28;20029;-72
2021/12/26 03:34:57;;;;;;;5.90;3.80;;;19.80;44.50;;;;;;6206095;28;20026;-72
2021/12/26 03:37:59;;;;;;;6.20;4.03;;;19.80;44.50;;;;;;6219808;28;20034;-72
2021/12/26 03:41:00;;;;;;;5.95;3.78;;;19.70;44.40;;;;;;6219529;28;20038;-72
2021/12/26 03:44:01;;;;;;;5.57;3.92;;;19.70;44.40;;;;;;6202198;28;20033;-72
2021/12/26 03:47:02;;;;;;;5.20;3.72;;;19.80;44.50;;;;;;6201858;28;20082;-72
2021/12/26 03:50:06;;;;;;;5.05;3.72;;;19.80;44.50;;;;;;6216314;28;20111;-72
2021/12/26 03:53:08;;;;;;;4.85;3.50;;;19.70;44.40;;;;;;6219025;28;20052;-72
2021/12/26 03:56:09;;;;;;;5.85;4.20;;;19.70;44.30;;;;;;6216095;28;20057;-72
2021/12/26 04:03:07;;;;;;;6.72;4.05;;;19.70;44.40;;;;;;6219333;28;20026;-72
2021/12/26 04:06:08;;;;;;;5.07;3.72;;;19.70;44.40;;;;;;6219041;28;20408;-72
2021/12/26 04:09:09;;;;;;;7.07;4.30;;;19.70;44.40;;;;;;6219165;28;20100;-73
2021/12/26 04:12:09;;;;;;;6.05;4.35;;;19.70;44.30;;;;;;6218998;28;20018;-72
2021/12/26 04:15:12;;;;;;;5.70;4.10;;;19.70;44.40;;;;;;6218723;28;20475;-74
2021/12/26 04:18:12;;;;;;;8.98;4.45;;;19.70;44.40;;;;;;6201205;28;20025;-72
2021/12/26 04:21:13;;;;;;;5.70;4.15;;;19.70;44.50;;;;;;6218691;28;20084;-73
2021/12/26 04:24:14;;;;;;;7.03;4.43;;;19.70;44.50;;;;;;6218818;28;20546;-73
2021/12/26 04:27:14;;;;;;;6.57;4.22;;;19.70;44.40;;;;;;6219047;28;20026;-73
2021/12/26 04:30:16;;;;;;;5.22;4.05;;;19.70;44.50;;;;;;6217769;28;20100;-73
2021/12/26 04:33:17;;;;;;;6.00;4.53;;;19.70;44.40;;;;;;6194290;28;20158;-73
2021/12/26 04:36:18;;;;;;;6.25;4.65;;;19.70;44.50;;;;;;6216714;28;20026;-73
2021/12/26 04:39:19;;;;;;;7.00;4.68;;;19.70;44.40;;;;;;6218565;28;20026;-73
2021/12/26 04:42:19;;;;;;;6.22;4.50;;;19.70;44.40;;;;;;6213451;28;20025;-73
2021/12/26 04:45:20;;;;;;;6.47;4.20;;;19.70;44.40;;;;;;6207871;28;20072;-73
2021/12/26 04:48:21;;;;;;;5.47;3.97;;;19.70;44.50;;;;;;6201048;28;20026;-73
2021/12/26 04:51:22;;;;;;;6.65;4.18;;;19.70;44.40;;;;;;6207976;28;20030;-73
2021/12/26 04:54:22;;;;;;;5.65;4.25;;;19.70;44.50;;;;;;6213650;28;20391;-73
2021/12/26 04:57:23;;;;;;;6.68;4.90;;;19.70;44.50;;;;;;6218665;28;20041;-73
2021/12/26 05:00:26;;;;;;;7.80;4.88;;;19.70;44.50;;;;;;6218081;28;20058;-72
2021/12/26 05:03:27;;;;;;;6.72;4.57;;;19.70;44.50;;;;;;6218422;28;20034;-73
2021/12/26 05:06:28;;;;;;;6.65;4.40;;;19.70;44.50;;;;;;6218423;28;20026;-73
2021/12/26 05:09:28;;;;;;;6.78;4.57;;;19.70;44.40;;;;;;6217659;28;20500;-73
2021/12/26 05:12:29;;;;;;;6.72;4.50;;;19.70;44.40;;;;;;6218461;28;20110;-73
2021/12/26 05:15:29;;;;;;;7.03;4.70;;;19.70;44.20;;;;;;6220999;28;20061;-73
2021/12/26 05:18:30;;;;;;;7.03;4.65;;;19.70;44.30;;;;;;6222431;28;20030;-73
2021/12/26 05:21:31;;;;;;;7.13;4.88;;;19.70;44.30;;;;;;6222670;28;20387;-73
2021/12/26 05:24:31;;;;;;;6.85;5.05;;;19.70;44.10;;;;;;6222283;28;20053;-73
2021/12/26 05:27:32;;;;;;;7.53;4.72;;;19.70;44.20;;;;;;6218168;28;20401;-73
2021/12/26 05:30:33;;;;;;;7.13;4.72;;;19.70;44.10;;;;;;6211048;28;20042;-73
2021/12/26 05:33:34;;;;;;;7.25;4.72;;;19.70;44.10;;;;;;6197525;28;20066;-72
2021/12/26 05:36:35;;;;;;;9.52;5.38;;;19.70;44.10;;;;;;6221822;28;20065;-73
2021/12/26 05:39:35;;;;;;;6.78;5.00;;;19.70;44.20;;;;;;6222058;28;20061;-73
2021/12/26 05:42:36;;;;;;;8.32;5.25;;;19.70;44.10;;;;;;6214819;28;20026;-72
2021/12/26 05:45:38;;;;;;;7.47;4.95;;;19.70;44.20;;;;;;6207753;28;20049;-73
2021/12/26 05:48:38;;;;;;;8.20;5.32;;;19.70;44.30;;;;;;6216376;28;20431;-73
2021/12/26 05:51:40;;;;;;;6.18;4.55;;;19.70;44.20;;;;;;6204039;28;20028;-73
2021/12/26 05:54:40;;;;;;;6.30;4.68;;;19.70;44.20;;;;;;6222092;28;20031;-72
2021/12/26 05:57:41;;;;;;;7.00;4.60;;;19.70;44.10;;;;;;6221680;28;20031;-72
2021/12/26 06:00:42;;;;;;;6.93;4.72;;;19.70;44.20;;;;;;6220582;28;20084;-73
2021/12/26 06:03:42;;;;;;;6.95;5.00;;;19.70;44.20;;;;;;6187337;28;20037;-73
2021/12/26 06:06:44;;;;;;;8.07;5.03;;;19.70;44.10;;;;;;6221779;28;20492;-73
2021/12/26 06:09:44;;;;;;;7.07;4.75;;;19.70;44.20;;;;;;6221076;28;20042;-73
2021/12/26 06:12:45;;;;;;;6.15;4.55;;;19.70;44.30;;;;;;6203948;28;20495;-73
2021/12/26 06:15:46;;;;;;;8.15;5.22;;;19.70;44.20;;;;;;6221391;28;20022;-72
2021/12/26 06:18:46;;;;;;;6.78;4.50;;;19.70;44.30;;;;;;6221496;28;20032;-73
2021/12/26 06:21:47;;;;;;;6.85;4.22;;;19.70;44.30;;;;;;6220970;28;20103;-73
2021/12/26 06:24:47;;;;;;;7.50;5.50;;;19.70;44.30;;;;;;6221200;28;20061;-73
2021/12/26 06:27:48;;;;;;;6.55;4.70;;;19.70;44.30;;;;;;6221066;28;20101;-74
2021/12/26 06:30:48;;;;;;;6.72;4.97;;;19.70;44.30;;;;;;6215210;28;20030;-72
2021/12/26 06:33:49;;;;;;;6.38;4.75;;;19.70;44.30;;;;;;6200680;28;20080;-72
2021/12/26 06:36:50;;;;;;;7.65;4.85;;;19.70;44.30;;;;;;6220838;28;20022;-72
2021/12/26 06:39:50;;;;;;;7.63;4.95;;;19.70;44.30;;;;;;6220694;28;20381;-73
2021/12/26 06:42:51;;;;;;;6.50;4.55;;;19.70;44.30;;;;;;6211344;28;20088;-73
2021/12/26 06:45:53;;;;;;;5.55;4.38;;;19.70;44.40;;;;;;6213894;28;20037;-73
2021/12/26 06:48:53;;;;;;;6.75;4.45;;;19.70;44.30;;;;;;6220027;28;20063;-73
2021/12/26 06:51:54;;;;;;;7.85;4.28;;;19.70;44.30;;;;;;6220307;28;20030;-73
2021/12/26 06:54:54;;;;;;;6.63;4.38;;;19.70;44.30;;;;;;6217302;28;20026;-72
2021/12/26 06:57:55;;;;;;;6.80;4.78;;;19.70;44.30;;;;;;6219873;28;20041;-73
2021/12/26 07:00:55;;;;;;;7.03;4.45;;;19.70;44.20;;;;;;6217164;28;20057;-73
2021/12/26 07:03:56;;;;;;;7.03;4.43;;;19.70;44.20;;;;;;6210458;28;20039;-73
2021/12/26 07:06:56;;;;;;;6.38;4.50;;;19.70;44.30;;;;;;6195991;28;20034;-73
2021/12/26 07:09:57;;;;;;;6.07;4.53;;;19.70;44.30;;;;;;6209648;28;20041;-73
2021/12/26 07:12:57;;;;;;;7.18;4.72;;;19.70;44.20;;;;;;6202907;28;20109;-72
2021/12/26 07:15:58;;;;;;;6.18;4.30;;;19.70;44.20;;;;;;6219656;28;20030;-73
2021/12/26 07:18:58;;;;;;;5.93;4.30;;;19.70;44.30;;;;;;6219760;28;20425;-72
2021/12/26 07:21:59;;;;;;;6.72;4.18;;;19.70;44.30;;;;;;6202289;28;20029;-73
2021/12/26 07:25:00;;;;;;;5.75;4.10;;;19.70;44.20;;;;;;6219809;28;20105;-72
2021/12/26 07:28:00;;;;;;;7.38;4.88;;;19.70;44.20;;;;;;6219507;28;20032;-73
2021/12/26 07:31:02;;;;;;;5.93;4.40;;;19.70;44.20;;;;;;6209058;28;20405;-73
2021/12/26 07:34:02;;;;;;;5.53;3.80;;;19.70;44.20;;;;;;6198280;28;20148;-73
2021/12/26 07:37:04;;;;;;;5.70;4.07;;;19.70;44.20;;;;;;6219106;28;20518;-72
2021/12/26 07:40:05;;;;;;;5.55;4.20;;;19.70;44.30;;;;;;6219408;28;20041;-73
2021/12/26 07:43:06;;;;;;;5.40;4.22;;;19.70;44.20;;;;;;6208183;28;20038;-73
2021/12/26 07:46:06;;;;;;;5.63;4.13;;;19.70;44.20;;;;;;6213333;28;20018;-73
2021/12/26 07:49:07;;;;;;;6.65;4.18;;;19.70;44.20;;;;;;6219305;28;20435;-73
2021/12/26 07:52:13;;;;;;;4.95;3.63;;;19.70;44.20;;;;;;6219032;28;20022;-72
2021/12/26 07:55:14;;;;;;;5.75;3.72;;;19.70;44.30;;;;;;6218981;28;20455;-72
2021/12/26 07:58:16;;;;;;;5.20;3.83;;;19.80;44.20;;;;;;6218960;28;20030;-72
2021/12/26 08:01:16;;;;;;;5.47;3.80;;;19.70;44.20;;;;;;6216165;28;20050;-73
2021/12/26 08:04:17;;;;;;;5.45;4.30;;;19.70;44.20;;;;;;6219096;28;20460;-72
2021/12/26 08:07:18;;;;;;;6.35;4.03;;;19.70;44.20;;;;;;6218877;28;20029;-72
2021/12/26 08:10:18;;;;;;;5.65;3.80;;;19.70;44.20;;;;;;6219128;28;20369;-73
2021/12/26 08:13:19;;;;;;;5.82;3.70;;;19.70;44.20;;;;;;6218854;28;20033;-73
2021/12/26 08:16:19;;;;;;;5.40;3.88;;;19.70;44.20;;;;;;6218896;28;20097;-73
2021/12/26 08:19:20;;;;;;;5.45;3.70;;;19.70;44.20;;;;;;6218559;28;20041;-73
2021/12/26 08:22:21;;;;;;;4.70;3.28;;;19.70;44.20;;;;;;6218807;28;20026;-73
2021/12/26 08:25:21;;;;;;;5.25;3.75;;;19.70;44.20;;;;;;6218657;28;20028;-73
2021/12/26 08:28:22;;;;;;;5.15;3.83;;;19.70;44.30;;;;;;6219481;28;20028;-72
2021/12/26 08:31:23;;;;;;;5.13;3.67;;;19.70;44.20;;;;;;6208138;28;20070;-73
2021/12/26 08:34:23;;;;;;;4.55;3.47;;;19.70;44.20;;;;;;6197705;28;20026;-72
2021/12/26 08:37:25;;;;;;;4.88;3.53;;;19.70;44.30;;;;;;6218421;28;20033;-72
2021/12/26 08:40:26;;;;;;;4.97;3.50;;;19.70;44.30;;;;;;6218609;28;20036;-73
2021/12/26 08:43:27;;;;;;;5.38;3.78;;;19.70;44.20;;;;;;6204624;28;20026;-73
2021/12/26 08:46:27;;;;;;;4.78;3.38;;;19.70;44.30;;;;;;6213087;28;20385;-73
2021/12/26 08:49:28;;;;;;;5.53;3.50;;;19.70;44.20;;;;;;6219503;28;20110;-72
2021/12/26 08:52:28;;;;;;;4.15;3.30;;;19.70;44.30;;;;;;6223173;28;20068;-73
2021/12/26 08:55:29;;;;;;;5.90;3.63;;;19.70;44.30;;;;;;6223166;28;20504;-72
2021/12/26 08:58:30;;;;;;;4.65;3.60;;;19.70;44.20;;;;;;6222851;28;20053;-73
2021/12/26 09:01:30;;;;;;;4.65;3.25;;;19.70;44.30;;;;;;6222940;28;20060;-73
2021/12/26 09:04:31;;;;;;;4.90;3.40;;;19.70;44.30;;;;;;6223362;28;20036;-72
2021/12/26 09:07:32;;;;;;;4.60;3.60;;;19.70;44.20;;;;;;6223253;28;20030;-73
2021/12/26 09:10:32;;;;;;;4.43;3.42;;;19.70;44.20;;;;;;6199891;28;20070;-72
2021/12/26 09:13:33;;;;;;;5.30;3.60;;;19.70;44.30;;;;;;6200043;28;20022;-72
2021/12/26 09:16:35;;;;;;;6.10;3.55;;;19.80;44.20;;;;;;6214030;28;20125;-72
2021/12/26 09:19:35;;;;;;;4.70;3.40;;;19.80;44.30;;;;;;6219404;28;20029;-72
2021/12/26 09:22:37;;;;;;;5.55;3.63;;;19.80;44.30;;;;;;6215583;28;20031;-73
2021/12/26 09:25:38;;;;;;;6.90;3.03;;;19.80;44.30;;;;;;6213643;28;20498;-72
2021/12/26 09:28:38;;;;;;;4.68;3.15;;;19.80;44.40;;;;;;6199471;28;20038;-72
2021/12/26 09:31:39;;;;;;;4.20;3.22;;;19.80;44.50;;;;;;6211888;28;20022;-72
2021/12/26 09:34:39;;;;;;;5.47;3.20;;;19.80;44.60;;;;;;6204217;28;20048;-73
2021/12/26 09:37:40;;;;;;;4.97;2.95;;;19.80;44.60;;;;;;6203037;28;20034;-72
2021/12/26 09:40:41;;;;;;;4.30;3.03;;;19.80;44.70;;;;;;6202493;28;20413;-72
2021/12/26 09:43:42;;;;;;;4.57;2.83;;;19.80;44.80;;;;;;6195822;28;20049;-72
2021/12/26 09:46:43;;;;;;;3.42;2.53;;;19.80;44.80;;;;;;6219793;28;20092;-72
2021/12/26 09:49:44;;;;;;;4.18;3.03;;;19.80;44.80;;;;;;6219485;28;20045;-73
2021/12/26 09:52:47;;;;;;;3.60;2.70;;;19.80;44.90;;;;;;6218417;28;20073;-72
2021/12/26 09:55:47;;;;;;;7.15;2.80;;;19.90;45.10;;;;;;6211637;28;20067;-73
2021/12/26 09:59:13;;;;;;;4.22;2.80;;;19.90;45.10;;;;;;6219478;28;20022;-72
2021/12/26 10:02:15;;;;;;;4.53;3.25;;;19.80;45.00;;;;;;6162410;28;20069;-72
2021/12/26 10:05:16;;;;;;;5.90;2.95;;;19.90;45.20;;;;;;6174196;28;20138;-73
2021/12/26 10:08:16;;;;;;;4.07;2.72;;;19.90;45.20;;;;;;6188992;28;20034;-72
2021/12/26 10:11:19;;;;;;;4.13;2.80;;;19.90;45.20;;;;;;6169929;28;20089;-73
2021/12/26 10:14:23;;;;;;;3.20;2.45;;;19.90;45.20;;;;;;6190324;28;20497;-72
2021/12/26 10:17:26;;;;;;;3.85;3.05;;;19.90;45.20;;;;;;6187756;28;20316;-73
2021/12/26 10:20:34;;;;;;;5.00;3.22;;;20.00;45.10;;;;;;6184138;28;20042;-72
2021/12/26 10:23:34;;;;;;;3.53;2.65;;;20.00;45.10;;;;;;6193739;28;20213;-73
2021/12/26 10:26:39;;;;;;;3.30;2.40;;;20.00;45.10;;;;;;6187778;28;20065;-72
2021/12/26 10:29:44;;;;;;;3.97;2.70;;;20.00;45.10;;;;;;6194762;28;20472;-72
2021/12/26 10:32:45;;;;;;;4.07;2.72;;;20.00;45.20;;;;;;6176978;28;20343;-72
2021/12/26 10:35:45;;;;;;;4.93;2.78;;;20.00;45.20;;;;;;6179578;28;20031;-73
2021/12/26 10:39:09;;;;;;;3.80;2.80;;;20.00;45.20;;;;;;6193338;28;20410;-72
2021/12/26 10:42:17;;;;;;;4.35;2.63;;;20.00;45.20;;;;;;6181388;28;20033;-73
2021/12/26 10:45:20;;;;;;;4.40;2.70;;;20.00;45.20;;;;;;6182229;28;20392;-73
2021/12/26 10:48:25;;;;;;;3.92;2.72;;;20.10;45.30;;;;;;6194395;28;20594;-73
2021/12/26 10:51:35;;;;;;;4.22;2.85;;;20.00;45.20;;;;;;6181136;28;20084;-73
2021/12/26 10:54:36;;;;;;;3.90;2.95;;;20.10;45.30;;;;;;6188258;28;20465;-73
2021/12/26 10:57:42;;;;;;;4.35;2.63;;;20.10;45.30;;;;;;6192773;28;20048;-73
2021/12/26 11:00:46;;;;;;;4.35;2.58;;;20.10;45.30;;;;;;6191595;28;20089;-73
2021/12/26 11:03:46;;;;;;;3.22;2.40;;;20.10;45.40;;;;;;6213378;28;20125;-73
2021/12/26 11:07:08;;;;;;;5.22;2.67;;;20.10;45.40;;;;;;6179253;28;20484;-73
2021/12/26 11:10:13;;;;;;;3.72;2.53;;;20.10;45.40;;;;;;6207145;28;20072;-73
2021/12/26 11:13:16;;;;;;;5.05;2.72;;;20.10;45.40;;;;;;6197816;28;20106;-71
2021/12/26 11:16:17;;;;;;;2.65;2.20;;;20.10;45.50;;;;;;6219781;28;20033;-72
2021/12/26 11:19:41;;;;;;;4.57;2.58;;;20.10;45.40;;;;;;6219884;28;20105;-73
2021/12/26 11:22:41;;;;;;;3.33;2.35;;;20.00;45.40;;;;;;6219784;28;20018;-73
2021/12/26 11:25:46;;;;;;;4.28;2.78;;;20.00;45.40;;;;;;6219679;28;20489;-72
2021/12/26 11:28:48;;;;;;;;;;;20.00;45.40;;;;;;6220117;28;20092;-73
2021/12/26 11:31:54;;;;;;;4.28;2.47;;;20.00;45.40;;;;;;6205991;28;19906;-73
2021/12/26 11:34:55;;;;;;;3.65;2.55;;;20.00;45.40;;;;;;6208185;28;20500;-73
2021/12/26 11:37:57;;;;;;;4.68;2.72;;;20.00;45.40;;;;;;6219475;28;20101;-73
2021/12/26 11:41:03;;;;;;;2.97;2.20;;;20.00;45.40;;;;;;6219557;28;20025;-73
2021/12/26 11:44:39;;;;;;;4.88;2.65;;;20.00;45.40;;;;;;6205011;28;20507;-73
2021/12/26 11:48:23;;;;;;;3.60;2.47;;;20.00;45.40;;;;;;6152107;28;20038;-74
2021/12/26 11:51:39;;;;;;;2.63;2.00;;;20.00;45.50;;;;;;6189708;28;20052;-73
2021/12/26 11:54:58;;;;;;;4.50;2.10;;;20.00;45.50;;;;;;6218964;28;20424;-73
2021/12/26 11:58:02;;;;;;;3.35;2.15;;;20.00;45.50;;;;;;6219134;28;20068;-73
2021/12/26 12:01:03;;;;;;;2.97;2.17;;;20.00;45.50;;;;;;6219109;28;20038;-73
2021/12/26 12:04:22;;;;;;;3.83;2.53;;;20.00;45.50;;;;;;6210103;28;20017;-73
2021/12/26 12:07:22;;;;;;;3.30;2.20;;;20.00;45.50;;;;;;6218944;28;20378;-73
2021/12/26 12:10:37;;;;;;;2.97;2.03;;;20.00;45.50;;;;;;6218632;28;20126;-73
2021/12/26 12:13:43;;;;;;;3.00;2.20;;;20.00;45.50;;;;;;6218906;28;20018;-73
2021/12/26 12:16:44;;;;;;;3.15;2.20;;;20.00;45.50;;;;;;6219207;28;20080;-72
2021/12/26 12:20:17;;;;;;;5.13;2.33;;;20.00;45.50;;;;;;6218657;28;20026;-73
2021/12/26 12:23:19;;;;;;;3.42;2.25;;;20.00;45.50;;;;;;6220582;28;20022;-73
2021/12/26 12:26:52;;;;;;;2.53;2.00;;;20.00;45.50;;;;;;6220804;28;20022;-73
2021/12/26 12:29:53;;;;;;;3.40;2.30;;;20.00;45.50;;;;;;6223866;28;20040;-72
2021/12/26 12:33:21;;;;;;;2.63;1.75;;;20.00;45.50;;;;;;6199709;28;20015;-73
2021/12/26 12:36:28;;;;;;;2.67;2.05;;;20.00;45.50;;;;;;6199590;28;20559;-73
2021/12/26 12:39:30;;;;;;;2.88;2.03;;;20.00;45.50;;;;;;6206093;28;20018;-73
2021/12/26 12:42:32;;;;;;;2.95;2.00;;;20.00;45.60;;;;;;6216820;28;20118;-73
2021/12/26 12:46:04;;;;;;;2.67;1.90;;;20.00;45.50;;;;;;6214425;28;20076;-73
2021/12/26 12:49:08;;;;;;;2.25;1.80;;;20.00;45.50;;;;;;6223430;28;20041;-73
2021/12/26 12:52:28;;;;;;;4.00;1.80;;;20.00;45.50;;;;;;6218034;28;20065;-73
2021/12/26 12:55:50;;;;;;;3.13;2.10;;;20.00;45.50;;;;;;6222739;28;20052;-73
2021/12/26 12:58:51;;;;;;;2.58;1.88;;;20.00;45.60;;;;;;6222958;28;20028;-73
2021/12/26 13:02:10;;;;;;;2.67;1.83;;;20.00;45.60;;;;;;6222589;28;20054;-73
2021/12/26 13:05:11;;;;;;;2.75;1.95;;;20.00;45.60;;;;;;6203820;28;20073;-73
2021/12/26 13:08:15;;;;;;;2.55;1.73;;;20.00;45.60;;;;;;6199066;28;20027;-73
2021/12/26 13:11:17;;;;;;;2.75;2.22;;;20.00;45.60;;;;;;6172185;28;20441;-73
2021/12/26 13:14:37;;;;;;;2.75;1.95;;;20.00;45.60;;;;;;6190088;28;20243;-73
2021/12/26 13:17:42;;;;;;;1.92;1.50;;;20.00;45.60;;;;;;6223250;28;20034;-73
2021/12/26 13:20:43;;;;;;;2.70;1.73;;;20.00;45.60;;;;;;6222201;28;20033;-73
2021/12/26 13:23:46;;;;;;;2.45;1.80;;;20.00;45.70;;;;;;6183064;28;20046;-73
2021/12/26 13:26:46;;;;;;;4.82;1.80;;;20.00;45.70;;;;;;6198069;28;20030;-73
2021/12/26 13:29:51;;;;;;;2.45;1.90;;;20.00;45.60;;;;;;6213476;28;20669;-73
2021/12/26 13:32:52;;;;;;;3.35;2.05;;;20.00;45.60;;;;;;6191933;28;20070;-73
2021/12/26 13:35:54;;;;;;;1.92;1.58;;;20.00;45.60;;;;;;6219582;28;20113;-73
2021/12/26 13:38:56;;;;;;;2.47;1.70;;;20.00;45.60;;;;;;6211266;28;20026;-73
2021/12/26 13:41:56;;;;;;;2.30;1.52;;;20.00;45.60;;;;;;6200050;28;20057;-74
2021/12/26 13:44:57;;;;;;;2.03;1.70;;;20.00;45.60;;;;;;6214386;28;20541;-73
2021/12/26 13:47:59;;;;;;;2.60;1.77;;;20.00;45.60;;;;;;6218310;28;20080;-73
2021/12/26 13:51:16;;;;;;;5.47;1.80;;;20.00;45.60;;;;;;6219670;28;20084;-73
2021/12/26 13:54:17;;;;;;;2.35;1.67;;;20.00;45.60;;;;;;6208482;28;20053;-73
2021/12/26 13:57:22;;;;;;;5.20;1.60;;;20.00;45.60;;;;;;6218089;28;20033;-73
2021/12/26 14:00:22;;;;;;;3.07;1.90;;;20.00;45.60;;;;;;6217448;28;20037;-73
2021/12/26 14:03:24;;;;;;;2.05;1.73;;;20.00;45.70;;;;;;6212714;28;20265;-73
2021/12/26 14:06:29;;;;;;;2.95;1.90;;;20.00;45.60;;;;;;6219864;28;20024;-73
2021/12/26 14:09:35;;;;;;;;;;;20.00;45.60;;;;;;6207849;28;20037;-73
2021/12/26 14:12:42;;;;;;;2.05;1.65;;;20.00;45.70;;;;;;6205256;28;20005;-73
2021/12/26 14:15:48;;;;;;;2.95;1.70;;;20.00;45.70;;;;;;6214779;28;20505;-73
2021/12/26 14:18:48;;;;;;;2.58;1.77;;;20.00;45.70;;;;;;6199790;28;20018;-73
2021/12/26 14:21:52;;;;;;;2.45;1.70;;;20.00;45.70;;;;;;6193793;28;20030;-74
2021/12/26 14:24:53;;;;;;;2.90;1.90;;;20.00;45.70;;;;;;6206866;28;20101;-73
2021/12/26 14:27:54;;;;;;;2.40;1.55;;;20.10;45.80;;;;;;6212777;28;20509;-73
2021/12/26 14:30:57;;;;;;;2.33;1.70;;;20.00;45.70;;;;;;6200457;28;20396;-73
2021/12/26 14:34:00;;;;;;;2.75;1.67;;;20.00;45.70;;;;;;6210104;28;20022;-73
2021/12/26 14:37:04;;;;;;;3.22;1.80;;;20.00;45.70;;;;;;6195075;28;20022;-73
2021/12/26 14:40:10;;;;;;;1.85;1.50;;;20.00;45.70;;;;;;6185681;28;20030;-73
2021/12/26 14:43:11;;;;;;;2.55;1.73;;;20.00;45.70;;;;;;6196781;28;20072;-73
2021/12/26 14:46:11;;;;;;;2.22;1.60;;;20.00;45.70;;;;;;6195279;28;20027;-72
2021/12/26 14:49:14;;;;;;;2.30;1.65;;;20.00;46.40;;;;;;6204582;28;20121;-73
2021/12/26 14:52:17;;;;;;;1.75;1.48;;;20.00;45.70;;;;;;6215169;28;20066;-73
2021/12/26 14:55:26;;;;;;;2.08;1.50;;;20.00;45.70;;;;;;6217797;28;20030;-73
2021/12/26 14:58:42;;;;;;;2.30;1.67;;;20.00;45.70;;;;;;6203749;28;20370;-72
2021/12/26 15:01:43;;;;;;;1.83;1.42;;;20.00;45.70;;;;;;6207850;28;20084;-74
2021/12/26 15:04:45;;;;;;;1.83;1.50;;;20.00;45.70;;;;;;6208219;28;20026;-73
2021/12/26 15:07:47;;;;;;;2.25;1.45;;;20.00;45.70;;;;;;6218446;28;20530;-72
2021/12/26 15:10:49;;;;;;;1.45;1.30;;;20.00;45.70;;;;;;6198922;28;20038;-73
2021/12/26 15:13:52;;;;;;;1.63;1.20;;;20.00;45.70;;;;;;6194960;28;20098;-73
2021/12/26 15:16:52;;;;;;;2.35;1.33;;;20.00;45.80;;;;;;6196179;28;20029;-73
2021/12/26 15:19:53;;;;;;;2.00;1.33;;;20.00;45.80;;;;;;6192076;28;20062;-73
2021/12/26 15:23:02;;;;;;;2.10;1.58;;;20.00;45.80;;;;;;6192062;28;20281;-73
2021/12/26 15:26:15;;;;;;;2.25;1.58;;;20.00;45.80;;;;;;6188560;28;20543;-73
2021/12/26 15:29:16;;;;;;;3.10;1.92;;;20.00;45.90;;;;;;6204276;28;20419;-73
2021/12/26 15:32:17;;;;;;;1.88;1.50;;;20.00;45.80;;;;;;6199393;28;20022;-73
2021/12/26 15:35:18;;;;;;;3.17;1.80;;;20.00;45.90;;;;;;6212771;28;20442;-73
2021/12/26 15:38:18;;;;;;;2.28;1.70;;;20.00;45.80;;;;;;6216265;28;20041;-74
2021/12/26 15:41:22;;;;;;;2.28;1.70;;;20.00;45.80;;;;;;6216382;28;20105;-73
2021/12/26 15:44:23;;;;;;;3.00;1.58;;;20.00;45.80;;;;;;6204679;28;20057;-73
2021/12/26 15:47:24;;;;;;;2.75;1.65;;;20.00;45.90;;;;;;6203349;28;20105;-73
2021/12/26 15:50:25;;;;;;;2.05;1.50;;;20.00;45.90;;;;;;6214604;28;20488;-73
2021/12/26 15:53:25;;;;;;;2.08;1.40;;;20.00;45.90;;;;;;6211849;28;20451;-73
2021/12/26 15:56:26;;;;;;;3.85;1.70;;;20.00;45.90;;;;;;6214610;28;20026;-73
2021/12/26 15:59:27;;;;;;;2.92;1.80;;;20.00;45.90;;;;;;6213644;28;20028;-73